sensor_id;sensor_type;location;lat;lon;timestamp;pressure;altitude;pressure_sealevel;temperature;humidity
29331;BME280;16331;52.528;13.342;2023-03-14T00:00:15;159353.88;;;13.27;100.00
29331;BME280;16331;52.528;13.342;2023-03-14T00:02:43;159351.16;;;13.26;100.00
29331;BME280;16331;52.528;13.342;2023-03-14T00:05:10;159344.28;;;13.24;100.00
29331;BME280;16331;52.528;13.342;2023-03-14T00:07:37;159345.63;;;13.24;100.00
29331;BME280;16331;52.528;13.342;2023-03-14T00:10:13;159337.38;;;13.21;100.00
29331;BME280;16331;52.528;13.342;2023-03-14T00:12:41;159323.63;;;13.16;100.00
29331;BME280;16331;52.528;13.342;2023-03-14T00:15:08;159333.25;;;13.20;100.00
29331;BME280;16331;52.528;13.342;2023-03-14T00:17:35;159301.63;;;13.08;100.00
29331;BME280;16331;52.528;13.342;2023-03-14T00:20:02;159286.53;;;13.02;100.00
29331;BME280;16331;52.528;13.342;2023-03-14T00:22:34;159272.72;;;12.97;100.00
29331;BME280;16331;52.528;13.342;2023-03-14T00:25:01;159278.25;;;12.99;100.00
29331;BME280;16331;52.528;13.342;2023-03-14T00:27:27;159249.34;;;12.89;100.00
29331;BME280;16331;52.528;13.342;2023-03-14T00:29:53;159257.56;;;12.92;100.00
29331;BME280;16331;52.528;13.342;2023-03-14T00:32:19;159238.38;;;12.85;100.00
29331;BME280;16331;52.528;13.342;2023-03-14T00:34:45;159227.34;;;12.81;100.00
29331;BME280;16331;52.528;13.342;2023-03-14T00:37:13;159217.72;;;12.77;100.00
29331;BME280;16331;52.528;13.342;2023-03-14T00:39:39;159216.38;;;12.77;100.00
29331;BME280;16331;52.528;13.342;2023-03-14T00:42:06;159206.72;;;12.73;100.00
29331;BME280;16331;52.528;13.342;2023-03-14T00:44:32;159204.00;;;12.72;100.00
29331;BME280;16331;52.528;13.342;2023-03-14T00:47:00;159198.50;;;12.70;100.00
29331;BME280;16331;52.528;13.342;2023-03-14T00:49:27;159188.84;;;12.67;100.00
29331;BME280;16331;52.528;13.342;2023-03-14T00:51:53;159183.34;;;12.65;100.00
29331;BME280;16331;52.528;13.342;2023-03-14T00:54:19;159191.59;;;12.68;100.00
29331;BME280;16331;52.528;13.342;2023-03-14T00:56:46;159164.13;;;12.58;100.00
29331;BME280;16331;52.528;13.342;2023-03-14T00:59:12;159169.59;;;12.60;100.00
29331;BME280;16331;52.528;13.342;2023-03-14T01:01:39;159164.13;;;12.58;100.00
29331;BME280;16331;52.528;13.342;2023-03-14T01:04:06;159140.75;;;12.49;100.00
29331;BME280;16331;52.528;13.342;2023-03-14T01:06:32;159153.13;;;12.54;100.00
29331;BME280;16331;52.528;13.342;2023-03-14T01:09:00;159133.91;;;12.47;100.00
29331;BME280;16331;52.528;13.342;2023-03-14T01:11:28;159121.50;;;12.42;100.00
29331;BME280;16331;52.528;13.342;2023-03-14T01:13:55;159128.41;;;12.45;100.00
29331;BME280;16331;52.528;13.342;2023-03-14T01:16:23;159103.63;;;12.36;100.00
29331;BME280;16331;52.528;13.342;2023-03-14T01:18:51;159122.88;;;12.43;100.00
29331;BME280;16331;52.528;13.342;2023-03-14T01:21:26;159110.53;;;12.38;100.00
29331;BME280;16331;52.528;13.342;2023-03-14T01:23:54;159110.53;;;12.38;100.00
29331;BME280;16331;52.528;13.342;2023-03-14T01:26:23;159114.66;;;12.40;100.00
29331;BME280;16331;52.528;13.342;2023-03-14T01:28:51;159116.03;;;12.40;100.00
29331;BME280;16331;52.528;13.342;2023-03-14T01:31:18;159106.41;;;12.37;100.00
29331;BME280;16331;52.528;13.342;2023-03-14T01:33:44;159094.06;;;12.32;100.00
29331;BME280;16331;52.528;13.342;2023-03-14T01:36:11;159099.50;;;12.34;100.00
29331;BME280;16331;52.528;13.342;2023-03-14T01:38:40;159085.75;;;12.29;100.00
29331;BME280;16331;52.528;13.342;2023-03-14T01:41:09;159091.28;;;12.31;100.00
29331;BME280;16331;52.528;13.342;2023-03-14T01:43:37;159092.66;;;12.32;100.00
29331;BME280;16331;52.528;13.342;2023-03-14T01:51:34;159061.06;;;12.20;100.00
29331;BME280;16331;52.528;13.342;2023-03-14T01:54:05;159078.91;;;12.27;100.00
29331;BME280;16331;52.528;13.342;2023-03-14T01:56:33;159067.94;;;12.23;100.00
29331;BME280;16331;52.528;13.342;2023-03-14T01:59:02;159061.06;;;12.20;100.00
29331;BME280;16331;52.528;13.342;2023-03-14T02:01:30;159048.69;;;12.16;100.00
29331;BME280;16331;52.528;13.342;2023-03-14T02:03:59;159048.69;;;12.16;100.00
29331;BME280;16331;52.528;13.342;2023-03-14T02:06:33;159067.94;;;12.23;100.00
29331;BME280;16331;52.528;13.342;2023-03-14T02:09:02;159069.28;;;12.23;100.00
29331;BME280;16331;52.528;13.342;2023-03-14T02:11:30;159054.19;;;12.18;100.00
29331;BME280;16331;52.528;13.342;2023-03-14T02:13:58;159029.44;;;12.09;100.00
29331;BME280;16331;52.528;13.342;2023-03-14T02:16:25;159040.47;;;12.13;100.00
29331;BME280;16331;52.528;13.342;2023-03-14T02:18:51;159054.19;;;12.18;100.00
29331;BME280;16331;52.528;13.342;2023-03-14T02:21:45;159045.97;;;12.15;100.00
29331;BME280;16331;52.528;13.342;2023-03-14T02:27:15;159040.47;;;12.13;100.00
29331;BME280;16331;52.528;13.342;2023-03-14T02:29:53;159044.56;;;12.14;100.00
29331;BME280;16331;52.528;13.342;2023-03-14T02:32:22;159048.69;;;12.16;100.00
29331;BME280;16331;52.528;13.342;2023-03-14T02:34:55;159048.69;;;12.16;100.00
29331;BME280;16331;52.528;13.342;2023-03-14T02:37:27;159062.44;;;12.21;100.00
29331;BME280;16331;52.528;13.342;2023-03-14T02:39:56;159040.47;;;12.13;100.00
29331;BME280;16331;52.528;13.342;2023-03-14T02:42:22;159051.44;;;12.17;100.00
29331;BME280;16331;52.528;13.342;2023-03-14T02:44:54;159048.69;;;12.16;100.00
29331;BME280;16331;52.528;13.342;2023-03-14T02:47:26;159033.56;;;12.10;100.00
29331;BME280;16331;52.528;13.342;2023-03-14T02:50:01;159007.47;;;12.01;100.00
29331;BME280;16331;52.528;13.342;2023-03-14T02:52:28;158995.09;;;11.96;100.00
29331;BME280;16331;52.528;13.342;2023-03-14T02:54:54;158991.00;;;11.95;100.00
29331;BME280;16331;52.528;13.342;2023-03-14T02:57:22;159014.38;;;12.03;100.00
29331;BME280;16331;52.528;13.342;2023-03-14T02:59:48;159004.75;;;12.00;100.00
29331;BME280;16331;52.528;13.342;2023-03-14T03:02:19;158982.75;;;11.92;100.00
29331;BME280;16331;52.528;13.342;2023-03-14T03:04:45;158988.25;;;11.94;100.00
29331;BME280;16331;52.528;13.342;2023-03-14T03:07:11;159002.00;;;11.99;100.00
29331;BME280;16331;52.528;13.342;2023-03-14T03:09:37;158985.47;;;11.93;100.00
29331;BME280;16331;52.528;13.342;2023-03-14T03:12:04;159002.00;;;11.99;100.00
29331;BME280;16331;52.528;13.342;2023-03-14T03:14:30;158984.16;;;11.92;100.00
29331;BME280;16331;52.528;13.342;2023-03-14T03:16:59;158975.91;;;11.89;100.00
29331;BME280;16331;52.528;13.342;2023-03-14T03:19:28;159002.00;;;11.99;100.00
29331;BME280;16331;52.528;13.342;2023-03-14T03:21:54;158995.09;;;11.96;100.00
29331;BME280;16331;52.528;13.342;2023-03-14T03:24:20;159006.13;;;12.00;100.00
29331;BME280;16331;52.528;13.342;2023-03-14T03:26:47;158997.88;;;11.97;100.00
29331;BME280;16331;52.528;13.342;2023-03-14T03:29:13;158999.22;;;11.98;100.00
29331;BME280;16331;52.528;13.342;2023-03-14T03:31:39;158985.47;;;11.93;100.00
29331;BME280;16331;52.528;13.342;2023-03-14T03:34:05;158982.75;;;11.92;100.00
29331;BME280;16331;52.528;13.342;2023-03-14T03:36:31;158992.38;;;11.95;100.00
29331;BME280;16331;52.528;13.342;2023-03-14T03:38:57;158999.22;;;11.98;100.00
29331;BME280;16331;52.528;13.342;2023-03-14T03:41:23;158971.78;;;11.88;100.00
29331;BME280;16331;52.528;13.342;2023-03-14T03:43:50;158974.53;;;11.89;100.00
29331;BME280;16331;52.528;13.342;2023-03-14T03:46:16;158964.91;;;11.85;100.00
29331;BME280;16331;52.528;13.342;2023-03-14T03:48:42;158967.63;;;11.86;100.00
29331;BME280;16331;52.528;13.342;2023-03-14T03:51:15;158974.53;;;11.89;100.00
29331;BME280;16331;52.528;13.342;2023-03-14T03:53:42;158964.91;;;11.85;100.00
29331;BME280;16331;52.528;13.342;2023-03-14T03:56:09;158955.28;;;11.82;100.00
29331;BME280;16331;52.528;13.342;2023-03-14T03:58:35;158959.38;;;11.83;100.00
29331;BME280;16331;52.528;13.342;2023-03-14T04:01:03;158964.91;;;11.85;100.00
29331;BME280;16331;52.528;13.342;2023-03-14T04:03:29;158960.78;;;11.84;100.00
29331;BME280;16331;52.528;13.342;2023-03-14T04:06:14;158956.66;;;11.82;100.00
29331;BME280;16331;52.528;13.342;2023-03-14T04:08:40;158956.66;;;11.82;100.00
29331;BME280;16331;52.528;13.342;2023-03-14T04:11:07;158978.63;;;11.90;100.00
29331;BME280;16331;52.528;13.342;2023-03-14T04:13:33;158952.53;;;11.81;100.00
29331;BME280;16331;52.528;13.342;2023-03-14T04:16:02;158963.50;;;11.85;100.00
29331;BME280;16331;52.528;13.342;2023-03-14T04:18:28;158971.78;;;11.88;100.00
29331;BME280;16331;52.528;13.342;2023-03-14T04:20:57;158977.25;;;11.90;100.00
29331;BME280;16331;52.528;13.342;2023-03-14T04:23:24;158977.25;;;11.90;100.00
29331;BME280;16331;52.528;13.342;2023-03-14T04:25:51;158978.63;;;11.90;100.00
29331;BME280;16331;52.528;13.342;2023-03-14T04:28:17;158995.09;;;11.96;100.00
29331;BME280;16331;52.528;13.342;2023-03-14T04:30:43;158974.53;;;11.89;100.00
29331;BME280;16331;52.528;13.342;2023-03-14T04:33:10;158986.88;;;11.93;100.00
29331;BME280;16331;52.528;13.342;2023-03-14T04:35:36;158993.72;;;11.96;100.00
29331;BME280;16331;52.528;13.342;2023-03-14T04:38:04;158974.53;;;11.89;100.00
29331;BME280;16331;52.528;13.342;2023-03-14T04:40:30;158986.88;;;11.93;100.00
29331;BME280;16331;52.528;13.342;2023-03-14T04:42:57;158969.00;;;11.87;100.00
29331;BME280;16331;52.528;13.342;2023-03-14T04:45:24;158969.00;;;11.87;100.00
29331;BME280;16331;52.528;13.342;2023-03-14T04:47:50;158956.66;;;11.82;100.00
29331;BME280;16331;52.528;13.342;2023-03-14T04:50:16;158941.53;;;11.77;100.00
29331;BME280;16331;52.528;13.342;2023-03-14T04:52:42;158967.63;;;11.86;100.00
29331;BME280;16331;52.528;13.342;2023-03-14T04:55:08;158964.91;;;11.85;100.00
29331;BME280;16331;52.528;13.342;2023-03-14T04:57:34;158969.00;;;11.87;100.00
29331;BME280;16331;52.528;13.342;2023-03-14T05:00:01;158952.53;;;11.81;100.00
29331;BME280;16331;52.528;13.342;2023-03-14T05:02:32;158974.53;;;11.89;100.00
29331;BME280;16331;52.528;13.342;2023-03-14T05:04:58;158974.53;;;11.89;100.00
29331;BME280;16331;52.528;13.342;2023-03-14T05:07:24;158988.25;;;11.94;100.00
29331;BME280;16331;52.528;13.342;2023-03-14T05:09:51;158971.78;;;11.88;100.00
29331;BME280;16331;52.528;13.342;2023-03-14T05:12:19;158973.13;;;11.88;100.00
29331;BME280;16331;52.528;13.342;2023-03-14T05:14:46;158969.00;;;11.87;100.00
29331;BME280;16331;52.528;13.342;2023-03-14T05:17:13;158981.38;;;11.91;100.00
29331;BME280;16331;52.528;13.342;2023-03-14T05:19:41;158974.53;;;11.89;100.00
29331;BME280;16331;52.528;13.342;2023-03-14T05:22:07;158969.00;;;11.87;100.00
29331;BME280;16331;52.528;13.342;2023-03-14T05:24:33;158963.50;;;11.85;100.00
29331;BME280;16331;52.528;13.342;2023-03-14T05:27:00;158960.78;;;11.84;100.00
29331;BME280;16331;52.528;13.342;2023-03-14T05:29:26;158966.28;;;11.86;100.00
29331;BME280;16331;52.528;13.342;2023-03-14T05:31:52;158974.53;;;11.89;100.00
29331;BME280;16331;52.528;13.342;2023-03-14T05:34:18;158993.72;;;11.96;100.00
29331;BME280;16331;52.528;13.342;2023-03-14T05:36:45;158989.59;;;11.94;100.00
29331;BME280;16331;52.528;13.342;2023-03-14T05:39:11;158996.50;;;11.97;100.00
29331;BME280;16331;52.528;13.342;2023-03-14T05:41:37;158977.25;;;11.90;100.00
29331;BME280;16331;52.528;13.342;2023-03-14T05:44:03;158959.38;;;11.83;100.00
29331;BME280;16331;52.528;13.342;2023-03-14T05:46:30;158981.38;;;11.91;100.00
29331;BME280;16331;52.528;13.342;2023-03-14T05:48:57;158973.13;;;11.88;100.00
29331;BME280;16331;52.528;13.342;2023-03-14T05:51:23;158985.47;;;11.93;100.00
29331;BME280;16331;52.528;13.342;2023-03-14T05:53:50;158973.13;;;11.88;100.00
29331;BME280;16331;52.528;13.342;2023-03-14T05:56:16;158971.78;;;11.88;100.00
29331;BME280;16331;52.528;13.342;2023-03-14T05:58:42;158985.47;;;11.93;100.00
29331;BME280;16331;52.528;13.342;2023-03-14T06:01:08;158984.16;;;11.92;100.00
29331;BME280;16331;52.528;13.342;2023-03-14T06:03:36;158977.25;;;11.90;100.00
29331;BME280;16331;52.528;13.342;2023-03-14T06:06:02;158991.00;;;11.95;100.00
29331;BME280;16331;52.528;13.342;2023-03-14T06:08:28;158991.00;;;11.95;100.00
29331;BME280;16331;52.528;13.342;2023-03-14T06:10:57;159015.69;;;12.04;100.00
29331;BME280;16331;52.528;13.342;2023-03-14T06:13:25;159002.00;;;11.99;100.00
29331;BME280;16331;52.528;13.342;2023-03-14T06:15:51;158988.25;;;11.94;100.00
29331;BME280;16331;52.528;13.342;2023-03-14T06:18:17;158999.22;;;11.98;100.00
29331;BME280;16331;52.528;13.342;2023-03-14T06:20:43;159010.25;;;12.02;100.00
29331;BME280;16331;52.528;13.342;2023-03-14T06:23:09;159012.97;;;12.03;100.00
29331;BME280;16331;52.528;13.342;2023-03-14T06:25:36;159006.13;;;12.00;100.00
29331;BME280;16331;52.528;13.342;2023-03-14T06:28:03;159018.47;;;12.05;100.00
29331;BME280;16331;52.528;13.342;2023-03-14T06:30:29;159048.69;;;12.16;100.00
29331;BME280;16331;52.528;13.342;2023-03-14T06:32:55;159039.06;;;12.12;100.00
29331;BME280;16331;52.528;13.342;2023-03-14T06:35:22;159062.44;;;12.21;100.00
29331;BME280;16331;52.528;13.342;2023-03-14T06:37:48;159076.19;;;12.26;100.00
29331;BME280;16331;52.528;13.342;2023-03-14T06:40:15;159089.94;;;12.31;100.00
29331;BME280;16331;52.528;13.342;2023-03-14T06:42:44;159094.06;;;12.32;100.00
29331;BME280;16331;52.528;13.342;2023-03-14T06:45:12;159100.91;;;12.35;100.00
29331;BME280;16331;52.528;13.342;2023-03-14T06:47:38;159095.38;;;12.33;100.00
29331;BME280;16331;52.528;13.342;2023-03-14T06:50:06;159098.19;;;12.34;100.00
29331;BME280;16331;52.528;13.342;2023-03-14T06:52:33;159103.63;;;12.36;100.00
29331;BME280;16331;52.528;13.342;2023-03-14T06:54:59;159120.16;;;12.42;100.00
29331;BME280;16331;52.528;13.342;2023-03-14T06:57:25;159131.13;;;12.46;100.00
29331;BME280;16331;52.528;13.342;2023-03-14T06:59:51;159162.75;;;12.57;100.00
29331;BME280;16331;52.528;13.342;2023-03-14T07:02:17;159213.59;;;12.76;100.00
29331;BME280;16331;52.528;13.342;2023-03-14T07:04:44;159241.09;;;12.86;100.00
29331;BME280;16331;52.528;13.342;2023-03-14T07:07:10;159205.34;;;12.73;100.00
29331;BME280;16331;52.528;13.342;2023-03-14T07:09:36;159190.25;;;12.67;100.00
29331;BME280;16331;52.528;13.342;2023-03-14T07:12:03;159213.59;;;12.76;100.00
29331;BME280;16331;52.528;13.342;2023-03-14T07:14:30;159186.13;;;12.66;100.00
29331;BME280;16331;52.528;13.342;2023-03-14T07:16:56;159165.47;;;12.58;100.00
29331;BME280;16331;52.528;13.342;2023-03-14T07:19:22;159157.25;;;12.55;100.00
29331;BME280;16331;52.528;13.342;2023-03-14T07:21:48;159128.41;;;12.45;100.00
29331;BME280;16331;52.528;13.342;2023-03-14T07:24:15;159143.47;;;12.50;100.00
29331;BME280;16331;52.528;13.342;2023-03-14T07:26:41;159127.00;;;12.44;100.00
29331;BME280;16331;52.528;13.342;2023-03-14T07:29:07;159147.59;;;12.52;100.00
29331;BME280;16331;52.528;13.342;2023-03-14T07:31:33;159165.47;;;12.58;100.00
29331;BME280;16331;52.528;13.342;2023-03-14T07:33:59;159180.63;;;12.64;100.00
29331;BME280;16331;52.528;13.342;2023-03-14T07:36:27;159175.13;;;12.62;100.00
29331;BME280;16331;52.528;13.342;2023-03-14T07:38:53;159149.00;;;12.52;100.00
29331;BME280;16331;52.528;13.342;2023-03-14T07:41:19;159171.00;;;12.60;100.00
29331;BME280;16331;52.528;13.342;2023-03-14T07:43:46;159171.00;;;12.60;100.00
29331;BME280;16331;52.528;13.342;2023-03-14T07:46:13;159162.75;;;12.57;100.00
29331;BME280;16331;52.528;13.342;2023-03-14T07:48:39;159153.13;;;12.54;100.00
29331;BME280;16331;52.528;13.342;2023-03-14T07:51:06;159144.88;;;12.51;100.00
29331;BME280;16331;52.528;13.342;2023-03-14T07:53:33;159169.59;;;12.60;100.00
29331;BME280;16331;52.528;13.342;2023-03-14T07:55:59;159213.59;;;12.76;100.00
29331;BME280;16331;52.528;13.342;2023-03-14T07:58:25;159281.03;;;13.00;100.00
29331;BME280;16331;52.528;13.342;2023-03-14T08:00:52;159307.16;;;13.10;100.00
29331;BME280;16331;52.528;13.342;2023-03-14T08:03:19;159315.38;;;13.13;100.00
29331;BME280;16331;52.528;13.342;2023-03-14T08:05:47;159356.66;;;13.28;100.00
29331;BME280;16331;52.528;13.342;2023-03-14T08:08:13;159360.78;;;13.30;100.00
29331;BME280;16331;52.528;13.342;2023-03-14T08:10:40;159386.91;;;13.39;100.00
29331;BME280;16331;52.528;13.342;2023-03-14T08:13:06;159424.03;;;13.53;100.00
29331;BME280;16331;52.528;13.342;2023-03-14T08:15:32;159430.94;;;13.55;100.00
29331;BME280;16331;52.528;13.342;2023-03-14T08:17:58;159466.69;;;13.68;100.00
29331;BME280;16331;52.528;13.342;2023-03-14T08:20:27;159454.28;;;13.64;100.00
29331;BME280;16331;52.528;13.342;2023-03-14T08:22:56;159447.44;;;13.61;100.00
29331;BME280;16331;52.528;13.342;2023-03-14T08:25:24;159455.66;;;13.64;100.00
29331;BME280;16331;52.528;13.342;2023-03-14T08:27:53;159441.91;;;13.59;100.00
29331;BME280;16331;52.528;13.342;2023-03-14T08:30:21;159382.78;;;13.38;100.00
29331;BME280;16331;52.528;13.342;2023-03-14T08:32:48;159403.41;;;13.45;100.00
29331;BME280;16331;52.528;13.342;2023-03-14T08:35:14;159428.16;;;13.54;100.00
29331;BME280;16331;52.528;13.342;2023-03-14T08:37:41;159422.69;;;13.52;100.00
29331;BME280;16331;52.528;13.342;2023-03-14T08:40:08;159424.03;;;13.53;100.00
29331;BME280;16331;52.528;13.342;2023-03-14T08:42:36;159448.81;;;13.62;100.00
29331;BME280;16331;52.528;13.342;2023-03-14T08:45:04;159428.16;;;13.54;100.00
29331;BME280;16331;52.528;13.342;2023-03-14T08:47:30;159395.16;;;13.42;100.00
29331;BME280;16331;52.528;13.342;2023-03-14T08:49:56;159364.91;;;13.31;100.00
29331;BME280;16331;52.528;13.342;2023-03-14T08:52:22;159407.53;;;13.47;100.00
29331;BME280;16331;52.528;13.342;2023-03-14T08:54:49;159386.91;;;13.39;100.00
29331;BME280;16331;52.528;13.342;2023-03-14T08:57:15;159364.91;;;13.31;100.00
29331;BME280;16331;52.528;13.342;2023-03-14T08:59:41;159378.66;;;13.36;100.00
29331;BME280;16331;52.528;13.342;2023-03-14T09:02:10;159435.06;;;13.57;100.00
29331;BME280;16331;52.528;13.342;2023-03-14T09:04:37;159424.03;;;13.53;100.00
29331;BME280;16331;52.528;13.342;2023-03-14T09:07:03;159469.44;;;13.69;100.00
29331;BME280;16331;52.528;13.342;2023-03-14T09:09:30;159541.00;;;13.95;100.00
29331;BME280;16331;52.528;13.342;2023-03-14T09:11:56;159620.88;;;14.24;100.00
29331;BME280;16331;52.528;13.342;2023-03-14T09:14:23;159633.25;;;14.29;100.00
29331;BME280;16331;52.528;13.342;2023-03-14T09:16:49;159619.44;;;14.24;100.00
29331;BME280;16331;52.528;13.342;2023-03-14T09:19:16;159510.72;;;13.84;100.00
29331;BME280;16331;52.528;13.342;2023-03-14T09:21:44;159580.91;;;14.10;100.00
29331;BME280;16331;52.528;13.342;2023-03-14T09:24:10;159666.28;;;14.41;100.00
29331;BME280;16331;52.528;13.342;2023-03-14T09:26:36;159742.00;;;14.69;100.00
29331;BME280;16331;52.528;13.342;2023-03-14T09:29:02;159795.72;;;14.88;100.00
29331;BME280;16331;52.528;13.342;2023-03-14T09:31:28;159806.72;;;14.92;100.00
29331;BME280;16331;52.528;13.342;2023-03-14T09:33:55;159846.66;;;15.07;100.00
29331;BME280;16331;52.528;13.342;2023-03-14T09:36:21;159985.84;;;15.57;100.00
29331;BME280;16331;52.528;13.342;2023-03-14T09:38:47;159888.00;;;15.22;100.00
29331;BME280;16331;52.528;13.342;2023-03-14T09:41:29;159889.34;;;15.22;100.00
29331;BME280;16331;52.528;13.342;2023-03-14T09:44:22;159790.19;;;14.86;100.00
29331;BME280;16331;52.528;13.342;2023-03-14T09:46:53;159788.81;;;14.86;100.00
29331;BME280;16331;52.528;13.342;2023-03-14T09:49:27;159718.59;;;14.60;100.00
29331;BME280;16331;52.528;13.342;2023-03-14T09:51:56;159715.84;;;14.59;100.00
29331;BME280;16331;52.528;13.342;2023-03-14T09:54:35;159762.66;;;14.76;100.00
29331;BME280;16331;52.528;13.342;2023-03-14T09:57:04;159801.19;;;14.90;100.00
29331;BME280;16331;52.528;13.342;2023-03-14T09:59:30;159823.22;;;14.98;100.00
29331;BME280;16331;52.528;13.342;2023-03-14T10:02:01;159736.50;;;14.67;100.00
29331;BME280;16331;52.528;13.342;2023-03-14T10:04:28;159799.84;;;14.90;100.00
29331;BME280;16331;52.528;13.342;2023-03-14T10:06:55;159797.06;;;14.89;100.00
29331;BME280;16331;52.528;13.342;2023-03-14T10:09:23;159702.06;;;14.54;100.00
29331;BME280;16331;52.528;13.342;2023-03-14T10:11:58;159611.19;;;14.21;100.00
29331;BME280;16331;52.528;13.342;2023-03-14T10:14:33;159622.22;;;14.25;100.00
29331;BME280;16331;52.528;13.342;2023-03-14T10:17:08;159663.53;;;14.40;100.00
29331;BME280;16331;52.528;13.342;2023-03-14T10:19:36;159722.72;;;14.62;100.00
29331;BME280;16331;52.528;13.342;2023-03-14T10:22:04;159726.84;;;14.63;100.00
29331;BME280;16331;52.528;13.342;2023-03-14T10:24:33;159773.69;;;14.80;100.00
29331;BME280;16331;52.528;13.342;2023-03-14T10:27:19;159803.97;;;14.91;100.00
29331;BME280;16331;52.528;13.342;2023-03-14T10:29:54;159715.84;;;14.59;100.00
29331;BME280;16331;52.528;13.342;2023-03-14T10:32:23;159678.66;;;14.45;100.00
29331;BME280;16331;52.528;13.342;2023-03-14T10:35:27;159658.03;;;14.38;100.00
29331;BME280;16331;52.528;13.342;2023-03-14T10:38:00;159622.22;;;14.25;100.00
29331;BME280;16331;52.528;13.342;2023-03-14T10:40:40;159604.28;;;14.18;100.00
29331;BME280;16331;52.528;13.342;2023-03-14T10:43:11;159609.78;;;14.20;100.00
29331;BME280;16331;52.528;13.342;2023-03-14T10:45:41;159616.66;;;14.23;100.00
29331;BME280;16331;52.528;13.342;2023-03-14T10:48:19;159631.88;;;14.28;100.00
29331;BME280;16331;52.528;13.342;2023-03-14T10:51:10;159658.03;;;14.38;100.00
29331;BME280;16331;52.528;13.342;2023-03-14T10:53:44;159644.25;;;14.33;100.00
29331;BME280;16331;52.528;13.342;2023-03-14T10:56:15;159678.66;;;14.45;100.00
29331;BME280;16331;52.528;13.342;2023-03-14T10:58:45;159689.69;;;14.49;100.00
29331;BME280;16331;52.528;13.342;2023-03-14T11:07:17;159682.78;;;14.47;100.00
29331;BME280;16331;52.528;13.342;2023-03-14T11:10:14;159673.19;;;14.43;100.00
29331;BME280;16331;52.528;13.342;2023-03-14T11:15:56;159670.41;;;14.42;100.00
29331;BME280;16331;52.528;13.342;2023-03-14T11:24:03;159642.91;;;14.32;100.00
29331;BME280;16331;52.528;13.342;2023-03-14T11:29:15;159664.94;;;14.40;100.00
29331;BME280;16331;52.528;13.342;2023-03-14T11:31:45;159671.78;;;14.43;100.00
29331;BME280;16331;52.528;13.342;2023-03-14T11:34:34;159708.94;;;14.57;100.00
29331;BME280;16331;52.528;13.342;2023-03-14T11:37:06;159704.81;;;14.55;100.00
29331;BME280;16331;52.528;13.342;2023-03-14T11:39:40;159662.16;;;14.39;100.00
29331;BME280;16331;52.528;13.342;2023-03-14T11:42:12;159681.44;;;14.46;100.00
29331;BME280;16331;52.528;13.342;2023-03-14T11:44:42;159667.66;;;14.41;100.00
29331;BME280;16331;52.528;13.342;2023-03-14T11:47:18;159607.06;;;14.19;100.00
29331;BME280;16331;52.528;13.342;2023-03-14T11:50:07;159583.66;;;14.11;100.00
29331;BME280;16331;52.528;13.342;2023-03-14T11:52:48;159627.75;;;14.27;100.00
29331;BME280;16331;52.528;13.342;2023-03-14T11:55:27;159659.41;;;14.38;100.00
29331;BME280;16331;52.528;13.342;2023-03-14T11:58:01;159656.63;;;14.37;100.00
29331;BME280;16331;52.528;13.342;2023-03-14T12:00:30;159648.38;;;14.34;100.00
29331;BME280;16331;52.528;13.342;2023-03-14T12:05:48;159719.97;;;14.61;100.00
29331;BME280;16331;52.528;13.342;2023-03-14T12:08:48;159728.22;;;14.64;100.00
29331;BME280;16331;52.528;13.342;2023-03-14T12:11:42;159792.94;;;14.87;100.00
29331;BME280;16331;52.528;13.342;2023-03-14T12:16:47;159710.34;;;14.57;100.00
29331;BME280;16331;52.528;13.342;2023-03-14T12:24:24;159680.03;;;14.46;100.00
29331;BME280;16331;52.528;13.342;2023-03-14T12:26:58;159831.53;;;15.01;100.00
29331;BME280;16331;52.528;13.342;2023-03-14T12:29:25;159845.28;;;15.06;100.00
29331;BME280;16331;52.528;13.342;2023-03-14T12:34:28;159832.88;;;15.02;100.00
29331;BME280;16331;52.528;13.342;2023-03-14T12:40:03;159885.22;;;15.21;100.00
29331;BME280;16331;52.528;13.342;2023-03-14T12:43:02;159951.41;;;15.45;100.00
29331;BME280;16331;52.528;13.342;2023-03-14T12:45:33;159959.66;;;15.48;100.00
29331;BME280;16331;52.528;13.342;2023-03-14T12:48:19;159854.91;;;15.10;100.00
29331;BME280;16331;52.528;13.342;2023-03-14T12:50:55;159791.59;;;14.87;100.00
29331;BME280;16331;52.528;13.342;2023-03-14T12:53:33;159871.44;;;15.16;100.00
29331;BME280;16331;52.528;13.342;2023-03-14T12:56:23;159904.53;;;15.28;100.00
29331;BME280;16331;52.528;13.342;2023-03-14T12:59:13;159810.84;;;14.94;100.00
29331;BME280;16331;52.528;13.342;2023-03-14T13:01:54;159708.94;;;14.57;100.00
29331;BME280;16331;52.528;13.342;2023-03-14T13:04:31;159477.69;;;13.72;100.00
29331;BME280;16331;52.528;13.342;2023-03-14T13:07:00;159403.41;;;13.45;100.00
29331;BME280;16331;52.528;13.342;2023-03-14T13:12:11;159373.16;;;13.34;100.00
29331;BME280;16331;52.528;13.342;2023-03-14T13:14:44;159378.66;;;13.36;100.00
29331;BME280;16331;52.528;13.342;2023-03-14T13:17:12;159337.38;;;13.21;100.00
29331;BME280;16331;52.528;13.342;2023-03-14T13:19:39;159331.88;;;13.19;100.00
29331;BME280;16331;52.528;13.342;2023-03-14T13:22:17;159309.88;;;13.11;100.00
29331;BME280;16331;52.528;13.342;2023-03-14T13:24:46;159296.16;;;13.06;100.00